Time;durP1;ratioP1;P1;durP2;ratioP2;P2;SDS_P1;SDS_P2;PMS_P1;PMS_P2;Temp;Humidity;BMP_temperature;BMP_pressure;BME280_temperature;BME280_humidity;BME280_pressure;Samples;Min_cycle;Max_cycle;Signal;HPM_P1;HPM_P2
2023/10/20 00:02:27;;;;;;;1.38;1.27;;;;;;;;;;5071974;28;20207;-66
2023/10/20 00:04:54;;;;;;;1.42;1.10;;;;;;;;;;5071027;28;20222;-66
2023/10/20 00:07:22;;;;;;;1.20;1.10;;;;;;;;;;5070551;28;20195;-66
2023/10/20 00:09:50;;;;;;;1.42;1.30;;;;;;;;;;5071689;28;20222;-66
2023/10/20 00:12:17;;;;;;;1.15;1.15;;;;;;;;;;5069867;28;20217;-66
2023/10/20 00:14:45;;;;;;;1.75;1.38;;;;;;;;;;5070782;28;20194;-67
2023/10/20 00:17:13;;;;;;;1.05;1.05;;;;;;;;;;5071735;28;20203;-66
2023/10/20 00:19:40;;;;;;;1.48;1.10;;;;;;;;;;5071509;28;20208;-67
2023/10/20 00:22:07;;;;;;;1.98;1.20;;;;;;;;;;5070665;28;20195;-66
2023/10/20 00:24:34;;;;;;;2.33;1.40;;;;;;;;;;5067631;28;20230;-66
2023/10/20 00:27:01;;;;;;;1.80;1.40;;;;;;;;;;5072402;28;20226;-66
2023/10/20 00:29:28;;;;;;;2.95;1.30;;;;;;;;;;5071253;28;20222;-65
2023/10/20 00:31:57;;;;;;;1.65;1.20;;;;;;;;;;5067284;28;20195;-64
2023/10/20 00:34:24;;;;;;;1.50;1.30;;;;;;;;;;5069627;28;20195;-66
2023/10/20 00:36:51;;;;;;;3.67;1.30;;;;;;;;;;5071547;28;20246;-64
2023/10/20 00:39:19;;;;;;;1.33;1.23;;;;;;;;;;5067529;28;20199;-64
2023/10/20 00:41:46;;;;;;;1.40;1.30;;;;;;;;;;5069569;28;20195;-64
2023/10/20 00:44:14;;;;;;;3.55;1.27;;;;;;;;;;5068347;28;20242;-66
2023/10/20 00:46:43;;;;;;;3.05;1.30;;;;;;;;;;5070750;28;20199;-65
2023/10/20 00:49:12;;;;;;;1.63;1.30;;;;;;;;;;5069430;28;20260;-64
2023/10/20 00:51:40;;;;;;;1.65;1.08;;;;;;;;;;5069552;28;20203;-65
2023/10/20 00:54:08;;;;;;;1.10;1.00;;;;;;;;;;5070836;28;20215;-65
2023/10/20 00:56:35;;;;;;;1.20;1.10;;;;;;;;;;5069752;28;20225;-65
2023/10/20 00:59:02;;;;;;;1.27;1.05;;;;;;;;;;5070561;28;21289;-65
2023/10/20 01:01:29;;;;;;;2.35;1.40;;;;;;;;;;5070964;28;20207;-64
2023/10/20 01:03:56;;;;;;;1.00;1.00;;;;;;;;;;5070340;28;20277;-65
2023/10/20 01:06:25;;;;;;;1.75;1.33;;;;;;;;;;5069193;28;20198;-64
2023/10/20 01:08:56;;;;;;;1.60;0.95;;;;;;;;;;5066584;28;20491;-64
2023/10/20 01:11:23;;;;;;;1.00;1.00;;;;;;;;;;5069850;28;20255;-65
2023/10/20 01:13:51;;;;;;;1.10;1.00;;;;;;;;;;5068904;28;20201;-65
2023/10/20 01:16:18;;;;;;;1.20;1.10;;;;;;;;;;5071089;28;20202;-65
2023/10/20 01:18:45;;;;;;;1.42;1.00;;;;;;;;;;5071313;28;20203;-66
2023/10/20 01:21:12;;;;;;;1.10;1.02;;;;;;;;;;5066281;28;20211;-65
2023/10/20 01:23:41;;;;;;;1.38;1.20;;;;;;;;;;5070341;28;20202;-66
2023/10/20 01:26:09;;;;;;;2.28;1.20;;;;;;;;;;5068761;28;20209;-65
2023/10/20 01:28:36;;;;;;;1.13;1.02;;;;;;;;;;5067387;28;20199;-65
2023/10/20 01:31:03;;;;;;;1.27;1.02;;;;;;;;;;5069747;28;20233;-66
2023/10/20 01:33:30;;;;;;;3.67;1.40;;;;;;;;;;5071139;28;20240;-65
2023/10/20 01:35:57;;;;;;;0.93;0.90;;;;;;;;;;5068998;28;20239;-65
2023/10/20 01:38:25;;;;;;;1.35;1.13;;;;;;;;;;5067592;28;20195;-65
2023/10/20 01:40:52;;;;;;;1.67;0.90;;;;;;;;;;5068726;28;20289;-65
2023/10/20 01:43:20;;;;;;;0.90;0.90;;;;;;;;;;5068114;28;20217;-65
2023/10/20 01:45:47;;;;;;;1.35;1.00;;;;;;;;;;5072453;28;20206;-64
2023/10/20 01:48:14;;;;;;;1.60;1.00;;;;;;;;;;5070898;28;20203;-64
2023/10/20 01:50:41;;;;;;;1.77;1.30;;;;;;;;;;5068781;28;20237;-66
2023/10/20 01:53:09;;;;;;;1.23;1.10;;;;;;;;;;5070546;28;20207;-64
2023/10/20 01:55:39;;;;;;;1.00;1.00;;;;;;;;;;5069607;28;20210;-64
2023/10/20 01:58:06;;;;;;;1.48;1.00;;;;;;;;;;5068375;28;20199;-64
2023/10/20 02:00:37;;;;;;;1.27;1.20;;;;;;;;;;5072623;28;20226;-65
2023/10/20 02:03:04;;;;;;;1.00;1.00;;;;;;;;;;5070200;28;20206;-64
2023/10/20 02:05:31;;;;;;;1.10;1.00;;;;;;;;;;5068296;28;20199;-65
2023/10/20 02:07:59;;;;;;;1.10;1.10;;;;;;;;;;5067820;28;20202;-65
2023/10/20 02:10:26;;;;;;;1.13;1.10;;;;;;;;;;5068706;28;20226;-65
2023/10/20 02:12:53;;;;;;;1.20;1.10;;;;;;;;;;5069560;28;20209;-66
2023/10/20 02:15:20;;;;;;;2.47;1.00;;;;;;;;;;5071078;28;20211;-69
2023/10/20 02:17:48;;;;;;;1.35;1.08;;;;;;;;;;5078190;28;20209;-70
2023/10/20 02:20:20;;;;;;;0.90;0.90;;;;;;;;;;5073467;28;21984;-69
2023/10/20 02:22:49;;;;;;;1.00;0.95;;;;;;;;;;5066479;28;20280;-70
2023/10/20 02:25:16;;;;;;;2.97;1.10;;;;;;;;;;5070139;28;20198;-69
2023/10/20 02:27:44;;;;;;;1.27;1.17;;;;;;;;;;5068562;28;20199;-69
2023/10/20 02:30:12;;;;;;;1.20;1.10;;;;;;;;;;5071365;28;20222;-69
2023/10/20 02:32:39;;;;;;;1.48;1.08;;;;;;;;;;5071048;28;20238;-69
2023/10/20 02:35:08;;;;;;;1.35;1.08;;;;;;;;;;5074599;28;20218;-69
2023/10/20 02:37:36;;;;;;;0.90;0.90;;;;;;;;;;5069611;28;20241;-69
2023/10/20 02:40:04;;;;;;;1.27;1.00;;;;;;;;;;5074742;28;20195;-69
2023/10/20 02:42:32;;;;;;;1.35;1.10;;;;;;;;;;5067661;28;20205;-70
2023/10/20 02:44:59;;;;;;;1.45;0.93;;;;;;;;;;5069539;28;20240;-70
2023/10/20 02:47:26;;;;;;;0.93;0.93;;;;;;;;;;5067878;28;20202;-70
2023/10/20 02:49:55;;;;;;;2.08;1.10;;;;;;;;;;5072077;28;20222;-70
2023/10/20 02:52:23;;;;;;;1.33;1.20;;;;;;;;;;5067075;28;20195;-70
2023/10/20 02:54:54;;;;;;;1.08;1.05;;;;;;;;;;5072703;28;20256;-70
2023/10/20 02:57:21;;;;;;;2.63;1.00;;;;;;;;;;5066055;28;20202;-70
2023/10/20 02:59:48;;;;;;;1.08;1.08;;;;;;;;;;5074277;28;20203;-70
2023/10/20 03:02:17;;;;;;;1.60;1.00;;;;;;;;;;5071471;28;20260;-70
2023/10/20 03:04:44;;;;;;;0.90;0.90;;;;;;;;;;5074828;28;20205;-70
2023/10/20 03:07:11;;;;;;;0.75;0.75;;;;;;;;;;5071979;28;20207;-69
2023/10/20 03:09:40;;;;;;;1.23;1.13;;;;;;;;;;5073333;28;20207;-69
2023/10/20 03:12:08;;;;;;;1.30;1.20;;;;;;;;;;5072545;28;20211;-69
2023/10/20 03:14:36;;;;;;;1.45;0.95;;;;;;;;;;5071912;28;20245;-69
2023/10/20 03:17:03;;;;;;;1.08;0.98;;;;;;;;;;5074685;28;20240;-69
2023/10/20 03:19:30;;;;;;;0.95;0.95;;;;;;;;;;5072087;28;20206;-70
2023/10/20 03:21:58;;;;;;;1.05;1.05;;;;;;;;;;5075796;28;20201;-69
2023/10/20 03:24:25;;;;;;;0.80;0.80;;;;;;;;;;5068795;28;20202;-69
2023/10/20 03:26:53;;;;;;;0.90;0.90;;;;;;;;;;5070246;28;20199;-69
2023/10/20 03:29:23;;;;;;;1.17;1.08;;;;;;;;;;5076970;28;20230;-69
2023/10/20 03:31:50;;;;;;;1.77;1.30;;;;;;;;;;5071189;28;20231;-70
2023/10/20 03:34:17;;;;;;;1.00;0.90;;;;;;;;;;5072959;28;20269;-70
2023/10/20 03:36:44;;;;;;;1.00;1.00;;;;;;;;;;5073743;28;20227;-70
2023/10/20 03:39:20;;;;;;;1.00;1.00;;;;;;;;;;5073016;28;20207;-69
2023/10/20 03:41:47;;;;;;;1.10;1.00;;;;;;;;;;5072618;28;20229;-70
2023/10/20 03:44:15;;;;;;;0.90;0.90;;;;;;;;;;5077684;28;20202;-70
2023/10/20 03:46:48;;;;;;;0.90;0.82;;;;;;;;;;5072594;28;20201;-70
2023/10/20 03:49:16;;;;;;;1.20;1.00;;;;;;;;;;5073293;28;20203;-70
2023/10/20 03:51:49;;;;;;;2.20;1.00;;;;;;;;;;5074265;28;20226;-70
2023/10/20 03:54:16;;;;;;;1.13;0.90;;;;;;;;;;5075854;28;20206;-70
2023/10/20 03:56:43;;;;;;;0.95;0.80;;;;;;;;;;5074610;28;20245;-70
2023/10/20 03:59:10;;;;;;;2.00;1.00;;;;;;;;;;5074566;28;20203;-70
2023/10/20 04:01:39;;;;;;;0.98;0.98;;;;;;;;;;5073010;28;20195;-70
2023/10/20 04:04:08;;;;;;;1.15;0.88;;;;;;;;;;5072812;28;20210;-70
2023/10/20 04:06:36;;;;;;;2.00;0.90;;;;;;;;;;5070926;28;20202;-70
2023/10/20 04:09:08;;;;;;;2.17;1.00;;;;;;;;;;5072507;28;20274;-70
2023/10/20 04:11:35;;;;;;;0.85;0.80;;;;;;;;;;5075689;28;20222;-70
2023/10/20 04:14:02;;;;;;;1.02;1.02;;;;;;;;;;5074728;28;20202;-70
2023/10/20 04:16:31;;;;;;;0.80;0.80;;;;;;;;;;5076496;28;20206;-70
2023/10/20 04:19:01;;;;;;;1.10;0.95;;;;;;;;;;5073917;28;20209;-69
2023/10/20 04:21:29;;;;;;;0.93;0.80;;;;;;;;;;5074056;28;20217;-69
2023/10/20 04:23:56;;;;;;;1.67;0.80;;;;;;;;;;5074875;28;20214;-69
2023/10/20 04:26:23;;;;;;;0.80;0.80;;;;;;;;;;5074199;28;20202;-69
2023/10/20 04:29:03;;;;;;;1.15;0.95;;;;;;;;;;5071714;28;20250;-69
2023/10/20 04:43:04;;;;;;;0.90;0.90;;;;;;;;;;5072371;28;20302;-69
2023/10/20 04:48:31;;;;;;;1.13;0.80;;;;;;;;;;5051379;28;20260;-69
2023/10/20 04:51:19;;;;;;;1.15;0.90;;;;;;;;;;5071782;28;20226;-70
2023/10/20 04:53:48;;;;;;;0.80;0.80;;;;;;;;;;5071695;28;20226;-70
2023/10/20 04:56:34;;;;;;;0.90;0.90;;;;;;;;;;5076046;28;20206;-70
2023/10/20 04:59:05;;;;;;;0.80;0.80;;;;;;;;;;5069425;28;20205;-70
2023/10/20 05:01:41;;;;;;;0.70;0.70;;;;;;;;;;5066090;28;20301;-70
2023/10/20 05:04:14;;;;;;;1.33;1.02;;;;;;;;;;5071355;28;20206;-70
2023/10/20 05:06:44;;;;;;;4.50;0.90;;;;;;;;;;5070630;28;20207;-69
2023/10/20 05:09:14;;;;;;;1.10;0.73;;;;;;;;;;5074447;28;20210;-70
2023/10/20 05:11:41;;;;;;;1.23;0.80;;;;;;;;;;5073379;28;20221;-70
2023/10/20 05:14:08;;;;;;;0.75;0.75;;;;;;;;;;5073551;28;20264;-70
2023/10/20 05:16:35;;;;;;;1.00;0.90;;;;;;;;;;5070368;28;20207;-70
2023/10/20 05:19:04;;;;;;;0.70;0.70;;;;;;;;;;5070804;28;20205;-69
2023/10/20 05:21:33;;;;;;;0.80;0.80;;;;;;;;;;5075211;28;20199;-69
2023/10/20 05:24:03;;;;;;;0.75;0.75;;;;;;;;;;5072438;28;20207;-69
2023/10/20 05:26:31;;;;;;;1.77;0.82;;;;;;;;;;5068820;28;20271;-69
2023/10/20 05:28:58;;;;;;;0.90;0.90;;;;;;;;;;5071496;28;20207;-69
2023/10/20 05:31:26;;;;;;;1.10;0.82;;;;;;;;;;5075512;28;20215;-69
2023/10/20 05:33:53;;;;;;;0.80;0.80;;;;;;;;;;5070353;28;20306;-69
2023/10/20 05:36:20;;;;;;;0.70;0.70;;;;;;;;;;5073438;28;20235;-70
2023/10/20 05:38:48;;;;;;;1.20;0.80;;;;;;;;;;5074058;28;20231;-70
2023/10/20 05:41:17;;;;;;;0.90;0.90;;;;;;;;;;5073556;28;20198;-70
2023/10/20 05:43:44;;;;;;;0.90;0.90;;;;;;;;;;5079572;28;20222;-65
2023/10/20 05:46:17;;;;;;;0.80;0.80;;;;;;;;;;5069223;28;20206;-65
2023/10/20 05:48:44;;;;;;;1.13;1.08;;;;;;;;;;5069376;28;20301;-66
2023/10/20 05:51:11;;;;;;;0.82;0.82;;;;;;;;;;5074016;28;20222;-65
2023/10/20 05:53:38;;;;;;;1.23;0.80;;;;;;;;;;5078600;28;20202;-65
2023/10/20 05:56:06;;;;;;;1.00;0.90;;;;;;;;;;5071367;28;20221;-66
2023/10/20 05:58:34;;;;;;;2.20;1.02;;;;;;;;;;5070800;28;20210;-65
2023/10/20 06:01:06;;;;;;;1.00;0.90;;;;;;;;;;5071416;28;20269;-65
2023/10/20 06:03:33;;;;;;;2.05;0.82;;;;;;;;;;5072854;28;20268;-65
2023/10/20 06:06:01;;;;;;;1.60;0.90;;;;;;;;;;5070865;28;20206;-65
2023/10/20 06:08:28;;;;;;;1.00;0.95;;;;;;;;;;5071809;28;20218;-66
2023/10/20 06:11:00;;;;;;;1.75;1.00;;;;;;;;;;5070184;28;20234;-66
2023/10/20 06:13:27;;;;;;;1.10;1.00;;;;;;;;;;5070234;28;20191;-65
2023/10/20 06:15:57;;;;;;;0.80;0.80;;;;;;;;;;5070775;28;20207;-65
2023/10/20 06:18:24;;;;;;;0.80;0.73;;;;;;;;;;5069216;28;20274;-67
2023/10/20 06:20:51;;;;;;;2.35;1.20;;;;;;;;;;5067462;28;20203;-65
2023/10/20 06:23:18;;;;;;;1.80;1.20;;;;;;;;;;5061600;28;20210;-66
2023/10/20 06:25:46;;;;;;;0.90;0.90;;;;;;;;;;5064162;28;20199;-66
2023/10/20 06:28:13;;;;;;;1.55;1.15;;;;;;;;;;5069037;28;20205;-65
2023/10/20 06:30:43;;;;;;;1.00;0.90;;;;;;;;;;5066100;28;20205;-65
2023/10/20 06:33:18;;;;;;;1.10;1.10;;;;;;;;;;5072724;28;20267;-65
2023/10/20 06:35:51;;;;;;;1.00;1.00;;;;;;;;;;5068330;28;20257;-67
2023/10/20 06:38:23;;;;;;;1.55;0.95;;;;;;;;;;5064046;28;20209;-66
2023/10/20 06:40:51;;;;;;;0.90;0.90;;;;;;;;;;5065220;28;20277;-67
2023/10/20 06:43:19;;;;;;;1.27;1.00;;;;;;;;;;5069150;28;20294;-64
2023/10/20 06:45:47;;;;;;;2.33;1.00;;;;;;;;;;5069372;28;20199;-64
2023/10/20 06:48:16;;;;;;;1.20;1.10;;;;;;;;;;5066673;28;20210;-64
2023/10/20 06:50:43;;;;;;;1.10;1.02;;;;;;;;;;5065079;28;20222;-64
2023/10/20 06:53:11;;;;;;;1.15;1.00;;;;;;;;;;5063188;28;20231;-64
2023/10/20 06:55:41;;;;;;;1.25;1.02;;;;;;;;;;5061203;28;20207;-68
2023/10/20 06:58:09;;;;;;;1.20;1.00;;;;;;;;;;5061646;28;20201;-69
2023/10/20 07:00:36;;;;;;;1.00;1.00;;;;;;;;;;5065587;28;20209;-68
2023/10/20 07:03:06;;;;;;;2.47;1.20;;;;;;;;;;5069009;28;20199;-69
2023/10/20 07:05:37;;;;;;;1.60;1.50;;;;;;;;;;5069755;28;20221;-69
2023/10/20 07:08:04;;;;;;;1.20;1.20;;;;;;;;;;5066809;28;20205;-68
2023/10/20 07:10:34;;;;;;;1.48;1.38;;;;;;;;;;5068901;28;20290;-68
2023/10/20 07:13:01;;;;;;;1.38;1.20;;;;;;;;;;5070682;28;20246;-69
2023/10/20 07:15:28;;;;;;;2.10;1.42;;;;;;;;;;5068212;28;20206;-68
2023/10/20 07:17:55;;;;;;;1.83;1.30;;;;;;;;;;5074505;28;20223;-69
2023/10/20 07:20:22;;;;;;;1.63;1.30;;;;;;;;;;5070418;28;20195;-69
2023/10/20 07:22:51;;;;;;;1.20;1.15;;;;;;;;;;5065675;28;20202;-69
2023/10/20 07:25:19;;;;;;;1.15;1.02;;;;;;;;;;5069809;28;20207;-68
2023/10/20 07:27:46;;;;;;;1.00;1.00;;;;;;;;;;5066949;28;20290;-68
2023/10/20 07:30:13;;;;;;;1.15;1.10;;;;;;;;;;5068713;28;20217;-69
2023/10/20 07:32:41;;;;;;;1.30;1.20;;;;;;;;;;5070708;28;20218;-69
2023/10/20 07:35:11;;;;;;;1.00;1.00;;;;;;;;;;5070465;28;20210;-69
2023/10/20 07:37:38;;;;;;;1.20;1.20;;;;;;;;;;5074116;28;20230;-69
2023/10/20 07:40:08;;;;;;;1.38;1.02;;;;;;;;;;5067995;28;20201;-69
2023/10/20 07:42:35;;;;;;;200.43;18.02;;;;;;;;;;5068082;28;20255;-72
2023/10/20 07:45:02;;;;;;;94.13;10.63;;;;;;;;;;5071410;28;20215;-70
2023/10/20 07:47:30;;;;;;;43.13;5.85;;;;;;;;;;5066631;28;20237;-69
2023/10/20 07:49:57;;;;;;;50.53;7.05;;;;;;;;;;5071461;28;20213;-71
2023/10/20 07:52:24;;;;;;;12.05;3.35;;;;;;;;;;5069322;28;20226;-69
2023/10/20 07:54:54;;;;;;;20.02;4.20;;;;;;;;;;5071642;28;20210;-69
2023/10/20 07:57:24;;;;;;;10.63;3.28;;;;;;;;;;5064013;28;20211;-69
2023/10/20 07:59:52;;;;;;;9.30;2.60;;;;;;;;;;5063218;28;20528;-69
2023/10/20 08:02:19;;;;;;;7.07;2.40;;;;;;;;;;5064466;28;20199;-68
2023/10/20 08:04:46;;;;;;;4.63;2.13;;;;;;;;;;5070454;28;20210;-68
2023/10/20 08:07:14;;;;;;;5.35;2.35;;;;;;;;;;5061020;28;20211;-69
2023/10/20 08:09:41;;;;;;;4.03;1.80;;;;;;;;;;5072197;28;20221;-69
2023/10/20 08:12:08;;;;;;;4.97;1.90;;;;;;;;;;5067710;28;20233;-69
2023/10/20 08:14:37;;;;;;;1.98;1.77;;;;;;;;;;5071583;28;20211;-69
2023/10/20 08:17:07;;;;;;;2.45;1.73;;;;;;;;;;5060022;28;20199;-69
2023/10/20 08:19:35;;;;;;;1.90;1.60;;;;;;;;;;5061082;28;20460;-69
2023/10/20 08:22:02;;;;;;;1.73;1.42;;;;;;;;;;5071635;28;20248;-69
2023/10/20 08:24:29;;;;;;;3.28;1.20;;;;;;;;;;5071821;28;20223;-69
2023/10/20 08:26:56;;;;;;;1.73;1.10;;;;;;;;;;5064700;28;20206;-68
2023/10/20 08:29:23;;;;;;;1.25;1.15;;;;;;;;;;5072033;28;20206;-69
2023/10/20 08:31:52;;;;;;;1.02;1.02;;;;;;;;;;5072536;28;20217;-69
2023/10/20 08:34:19;;;;;;;1.40;1.20;;;;;;;;;;5069909;28;20206;-69
2023/10/20 08:36:46;;;;;;;1.48;1.10;;;;;;;;;;5066350;28;20242;-69
2023/10/20 08:39:19;;;;;;;1.35;1.10;;;;;;;;;;5070822;28;20291;-69
2023/10/20 08:41:46;;;;;;;1.25;1.00;;;;;;;;;;5062504;28;20206;-69
2023/10/20 08:44:14;;;;;;;1.02;1.02;;;;;;;;;;5066355;28;20203;-69
2023/10/20 08:46:42;;;;;;;0.93;0.90;;;;;;;;;;5062252;28;20203;-69
2023/10/20 08:49:11;;;;;;;1.30;1.20;;;;;;;;;;5056921;28;20203;-69
2023/10/20 08:51:39;;;;;;;1.55;1.10;;;;;;;;;;5059344;28;20309;-68
2023/10/20 08:54:08;;;;;;;0.80;0.80;;;;;;;;;;5061176;28;20210;-68
2023/10/20 08:56:35;;;;;;;1.00;1.00;;;;;;;;;;5063008;28;20203;-69
2023/10/20 08:59:02;;;;;;;0.90;0.90;;;;;;;;;;5063998;28;20213;-69
2023/10/20 09:01:30;;;;;;;0.88;0.88;;;;;;;;;;5064680;28;20210;-69
2023/10/20 09:03:57;;;;;;;4.68;2.60;;;;;;;;;;5060395;28;20214;-69
2023/10/20 09:06:27;;;;;;;3.55;3.15;;;;;;;;;;5062109;28;20228;-68
2023/10/20 09:08:54;;;;;;;2.22;2.03;;;;;;;;;;5064928;28;20206;-69
2023/10/20 09:11:25;;;;;;;2.50;1.83;;;;;;;;;;5063052;28;20199;-69
2023/10/20 09:13:53;;;;;;;1.90;1.80;;;;;;;;;;5060531;28;20230;-69
2023/10/20 09:16:20;;;;;;;3.33;1.88;;;;;;;;;;5064629;28;20203;-68
2023/10/20 09:18:48;;;;;;;2.05;1.85;;;;;;;;;;5061453;28;20210;-69
2023/10/20 09:21:15;;;;;;;2.78;1.90;;;;;;;;;;5056209;28;20237;-68
2023/10/20 09:23:53;;;;;;;2.47;2.28;;;;;;;;;;5064483;28;20312;-69
2023/10/20 09:26:21;;;;;;;1.85;1.75;;;;;;;;;;5057291;28;20214;-69
2023/10/20 09:28:48;;;;;;;2.15;1.70;;;;;;;;;;5069747;28;20206;-69
2023/10/20 09:31:16;;;;;;;1.20;1.10;;;;;;;;;;5062395;28;20210;-68
2023/10/20 09:33:43;;;;;;;1.00;1.00;;;;;;;;;;5060741;28;20237;-69
2023/10/20 09:36:11;;;;;;;1.20;1.10;;;;;;;;;;5060377;28;20320;-69
2023/10/20 09:38:38;;;;;;;1.20;1.17;;;;;;;;;;5062556;28;20274;-68
2023/10/20 09:41:11;;;;;;;1.48;1.25;;;;;;;;;;5059284;28;20203;-68
2023/10/20 09:43:38;;;;;;;1.00;1.00;;;;;;;;;;5063576;28;20195;-68
2023/10/20 09:46:11;;;;;;;2.25;1.10;;;;;;;;;;5059543;28;20209;-68
2023/10/20 09:48:39;;;;;;;1.40;1.30;;;;;;;;;;5058419;28;20226;-68
2023/10/20 09:51:06;;;;;;;1.38;1.30;;;;;;;;;;5063472;28;20199;-68
2023/10/20 09:53:34;;;;;;;1.40;1.30;;;;;;;;;;5061906;28;20234;-69
2023/10/20 09:56:01;;;;;;;1.25;1.20;;;;;;;;;;5056826;28;20211;-68
2023/10/20 09:58:33;;;;;;;1.60;1.50;;;;;;;;;;5070249;28;20281;-68
2023/10/20 10:01:02;;;;;;;1.42;1.30;;;;;;;;;;5065109;28;20218;-68
2023/10/20 10:03:30;;;;;;;1.27;1.27;;;;;;;;;;5059671;28;20256;-68
2023/10/20 10:05:57;;;;;;;1.48;1.38;;;;;;;;;;5065258;28;20206;-68
2023/10/20 10:08:26;;;;;;;1.25;1.15;;;;;;;;;;5072423;28;20198;-68
2023/10/20 10:10:53;;;;;;;1.45;1.35;;;;;;;;;;5068352;28;20264;-68
2023/10/20 10:13:35;;;;;;;1.38;1.30;;;;;;;;;;5067180;28;20209;-69
2023/10/20 10:16:10;;;;;;;1.00;1.00;;;;;;;;;;5069051;28;20213;-69
2023/10/20 10:18:46;;;;;;;2.67;1.30;;;;;;;;;;5069423;28;20205;-69
2023/10/20 10:21:23;;;;;;;1.10;1.10;;;;;;;;;;5073099;28;20213;-69
2023/10/20 10:24:03;;;;;;;1.10;1.10;;;;;;;;;;5068833;28;20214;-65
2023/10/20 10:26:31;;;;;;;0.90;0.90;;;;;;;;;;5070018;28;20199;-63
2023/10/20 10:28:58;;;;;;;1.55;1.08;;;;;;;;;;5071560;28;20205;-65
2023/10/20 10:31:35;;;;;;;1.15;0.80;;;;;;;;;;5067247;28;20217;-63
2023/10/20 10:34:04;;;;;;;1.23;1.00;;;;;;;;;;5068949;28;20222;-63
2023/10/20 10:36:31;;;;;;;1.42;1.30;;;;;;;;;;5069282;28;20242;-63
2023/10/20 10:38:58;;;;;;;1.30;1.20;;;;;;;;;;5068757;28;20233;-63
2023/10/20 10:41:27;;;;;;;1.15;1.05;;;;;;;;;;5071551;28;20209;-64
2023/10/20 10:43:55;;;;;;;1.10;1.00;;;;;;;;;;5069034;28;20195;-63
2023/10/20 10:46:22;;;;;;;1.33;1.00;;;;;;;;;;5067840;28;20202;-63
2023/10/20 10:48:52;;;;;;;1.00;1.00;;;;;;;;;;5070464;28;20250;-63
2023/10/20 10:51:20;;;;;;;1.40;1.30;;;;;;;;;;5071455;28;20209;-64
2023/10/20 10:53:47;;;;;;;2.30;1.50;;;;;;;;;;5068701;28;20222;-63
2023/10/20 10:56:15;;;;;;;1.67;1.58;;;;;;;;;;5073125;28;20212;-63
2023/10/20 10:58:42;;;;;;;1.40;1.20;;;;;;;;;;5069554;28;20195;-63
2023/10/20 11:01:09;;;;;;;2.22;1.13;;;;;;;;;;5070771;28;20226;-63
2023/10/20 11:03:37;;;;;;;1.05;1.00;;;;;;;;;;5072521;28;20199;-62
2023/10/20 11:06:06;;;;;;;1.17;1.15;;;;;;;;;;5072775;28;20207;-64
2023/10/20 11:08:33;;;;;;;1.58;1.30;;;;;;;;;;5065391;28;20218;-63
2023/10/20 11:11:00;;;;;;;1.55;1.30;;;;;;;;;;5066911;28;20203;-62
2023/10/20 11:13:29;;;;;;;1.50;1.40;;;;;;;;;;5071508;28;20219;-63
2023/10/20 11:15:56;;;;;;;1.38;1.27;;;;;;;;;;5065167;28;20206;-63
2023/10/20 11:18:23;;;;;;;1.35;1.25;;;;;;;;;;5066877;28;20203;-62
2023/10/20 11:20:50;;;;;;;1.10;1.10;;;;;;;;;;5067991;28;20225;-63
2023/10/20 11:23:28;;;;;;;1.13;1.00;;;;;;;;;;5070333;28;20203;-63
2023/10/20 11:25:57;;;;;;;1.83;1.40;;;;;;;;;;5072311;28;20209;-63
2023/10/20 11:28:24;;;;;;;1.10;1.10;;;;;;;;;;5068831;28;20261;-63
2023/10/20 11:30:51;;;;;;;1.10;1.00;;;;;;;;;;5067753;28;20203;-64
2023/10/20 11:33:19;;;;;;;1.88;1.10;;;;;;;;;;5073523;28;20219;-62
2023/10/20 11:35:46;;;;;;;0.98;0.98;;;;;;;;;;5072391;28;20242;-62
2023/10/20 11:38:14;;;;;;;1.17;1.10;;;;;;;;;;5072185;28;20211;-62
2023/10/20 11:40:47;;;;;;;1.30;1.20;;;;;;;;;;5071739;28;20199;-63
2023/10/20 11:43:14;;;;;;;0.90;0.90;;;;;;;;;;5069610;28;20199;-62
2023/10/20 11:45:41;;;;;;;1.20;0.90;;;;;;;;;;5069806;28;20199;-63
2023/10/20 11:48:08;;;;;;;0.90;0.90;;;;;;;;;;5069832;28;20195;-63
2023/10/20 11:50:36;;;;;;;2.53;1.10;;;;;;;;;;5065689;28;20214;-63
2023/10/20 11:53:03;;;;;;;0.98;0.98;;;;;;;;;;5063835;28;20223;-63
2023/10/20 11:55:30;;;;;;;0.90;0.75;;;;;;;;;;5071143;28;20203;-62
2023/10/20 11:58:00;;;;;;;0.75;0.75;;;;;;;;;;5071893;28;20215;-63
2023/10/20 12:00:27;;;;;;;1.38;1.02;;;;;;;;;;5071003;28;20199;-64
2023/10/20 12:02:54;;;;;;;1.50;0.90;;;;;;;;;;5071930;28;20195;-63
2023/10/20 12:05:21;;;;;;;0.82;0.82;;;;;;;;;;5070573;28;20209;-63
2023/10/20 12:07:49;;;;;;;0.82;0.77;;;;;;;;;;5066274;28;20236;-63
2023/10/20 12:10:16;;;;;;;1.33;0.70;;;;;;;;;;5070597;28;20260;-63
2023/10/20 12:12:43;;;;;;;1.45;1.33;;;;;;;;;;5070786;28;20199;-63
2023/10/20 12:15:12;;;;;;;1.02;0.85;;;;;;;;;;5069991;28;20198;-63
2023/10/20 12:17:40;;;;;;;0.90;0.90;;;;;;;;;;5072297;28;20203;-63
2023/10/20 12:20:09;;;;;;;0.70;0.70;;;;;;;;;;5072197;28;20210;-64
2023/10/20 12:22:36;;;;;;;0.60;0.60;;;;;;;;;;5070898;28;20293;-62
2023/10/20 12:25:04;;;;;;;0.47;0.47;;;;;;;;;;5070554;28;20199;-63
2023/10/20 12:27:32;;;;;;;1.25;0.80;;;;;;;;;;5069225;28;20215;-63
2023/10/20 12:29:59;;;;;;;0.43;0.43;;;;;;;;;;5069521;28;20199;-64
2023/10/20 12:32:28;;;;;;;0.40;0.40;;;;;;;;;;5069947;28;20210;-63
2023/10/20 12:34:55;;;;;;;0.70;0.52;;;;;;;;;;5066580;28;20237;-63
2023/10/20 12:37:22;;;;;;;0.60;0.60;;;;;;;;;;5067523;28;20267;-64
2023/10/20 12:39:51;;;;;;;0.55;0.50;;;;;;;;;;5067860;28;20206;-63
2023/10/20 12:42:18;;;;;;;0.65;0.65;;;;;;;;;;5065126;28;20211;-63
2023/10/20 12:44:45;;;;;;;0.40;0.40;;;;;;;;;;5072133;28;20294;-64
2023/10/20 12:47:12;;;;;;;0.40;0.40;;;;;;;;;;5069198;28;20195;-65
2023/10/20 12:49:40;;;;;;;0.38;0.30;;;;;;;;;;5072527;28;20207;-63
2023/10/20 12:52:07;;;;;;;0.65;0.50;;;;;;;;;;5071903;28;20203;-64
2023/10/20 12:54:35;;;;;;;0.73;0.73;;;;;;;;;;5067428;28;20218;-63
2023/10/20 12:57:02;;;;;;;0.70;0.70;;;;;;;;;;5068905;28;20195;-63
2023/10/20 12:59:29;;;;;;;2.35;1.00;;;;;;;;;;5072171;28;20211;-63
2023/10/20 13:01:56;;;;;;;1.30;1.00;;;;;;;;;;5071793;28;20210;-64
2023/10/20 13:04:23;;;;;;;1.55;1.45;;;;;;;;;;5070377;28;20198;-63
2023/10/20 13:06:52;;;;;;;1.10;1.10;;;;;;;;;;5071396;28;20221;-63
2023/10/20 13:09:19;;;;;;;1.88;1.73;;;;;;;;;;5069767;28;20240;-65
2023/10/20 13:11:46;;;;;;;1.10;1.00;;;;;;;;;;5070464;28;20199;-63
2023/10/20 13:14:13;;;;;;;0.90;0.90;;;;;;;;;;5071725;28;20222;-64
2023/10/20 13:16:40;;;;;;;0.80;0.80;;;;;;;;;;5065449;28;20203;-64
2023/10/20 13:19:07;;;;;;;0.60;0.60;;;;;;;;;;5072010;28;20214;-64
2023/10/20 13:21:35;;;;;;;1.05;0.65;;;;;;;;;;5072351;28;20207;-63
2023/10/20 13:24:03;;;;;;;0.80;0.80;;;;;;;;;;5072215;28;20216;-64
2023/10/20 13:26:30;;;;;;;1.10;0.85;;;;;;;;;;5067858;28;20206;-64
2023/10/20 13:28:57;;;;;;;0.70;0.70;;;;;;;;;;5070979;28;20217;-63
2023/10/20 13:31:24;;;;;;;1.25;1.15;;;;;;;;;;5069030;28;20199;-64
2023/10/20 13:33:51;;;;;;;0.90;0.90;;;;;;;;;;5067864;28;20229;-63
2023/10/20 13:36:19;;;;;;;0.93;0.90;;;;;;;;;;5070733;28;20242;-64
2023/10/20 13:38:46;;;;;;;1.15;1.05;;;;;;;;;;5071236;28;20207;-64
2023/10/20 13:41:14;;;;;;;2.25;1.00;;;;;;;;;;5070842;28;20207;-65
2023/10/20 13:43:42;;;;;;;1.27;1.00;;;;;;;;;;5069743;28;20214;-63
2023/10/20 13:46:09;;;;;;;0.65;0.57;;;;;;;;;;5071662;28;20214;-64
2023/10/20 13:48:37;;;;;;;2.15;1.20;;;;;;;;;;5068182;28;20211;-64
2023/10/20 13:51:07;;;;;;;1.02;0.85;;;;;;;;;;5068561;28;20202;-63
2023/10/20 13:53:36;;;;;;;1.42;0.95;;;;;;;;;;5070284;28;20231;-63
2023/10/20 13:56:03;;;;;;;1.20;1.10;;;;;;;;;;5070682;28;20206;-65
2023/10/20 13:58:32;;;;;;;1.30;1.23;;;;;;;;;;5070725;28;20213;-64
2023/10/20 14:00:59;;;;;;;1.30;0.80;;;;;;;;;;5071221;28;20220;-64
2023/10/20 14:03:26;;;;;;;0.80;0.80;;;;;;;;;;5070487;28;20199;-63
2023/10/20 14:05:54;;;;;;;0.50;0.50;;;;;;;;;;5070532;28;20198;-63
2023/10/20 14:08:21;;;;;;;1.98;0.82;;;;;;;;;;5070278;28;20203;-64
2023/10/20 14:10:49;;;;;;;1.48;0.60;;;;;;;;;;5071795;28;20242;-64
2023/10/20 14:13:16;;;;;;;1.77;0.80;;;;;;;;;;5070539;28;20232;-64
2023/10/20 14:15:44;;;;;;;0.98;0.70;;;;;;;;;;5071581;28;20232;-63
2023/10/20 14:18:12;;;;;;;0.60;0.60;;;;;;;;;;5070696;28;20203;-64
2023/10/20 14:20:39;;;;;;;1.10;1.10;;;;;;;;;;5071258;28;20211;-63
2023/10/20 14:23:07;;;;;;;1.42;1.20;;;;;;;;;;5070703;28;20214;-64
2023/10/20 14:25:34;;;;;;;1.15;1.05;;;;;;;;;;5066441;28;20203;-64
2023/10/20 14:28:01;;;;;;;1.42;1.30;;;;;;;;;;5070817;28;20209;-65
2023/10/20 14:30:28;;;;;;;1.70;1.00;;;;;;;;;;5071031;28;20198;-65
2023/10/20 14:32:57;;;;;;;1.02;0.88;;;;;;;;;;5066211;28;20209;-63
2023/10/20 14:35:24;;;;;;;1.25;1.25;;;;;;;;;;5067835;28;20226;-64
2023/10/20 14:37:51;;;;;;;1.70;1.60;;;;;;;;;;5063902;28;20226;-64
2023/10/20 14:40:18;;;;;;;1.42;1.42;;;;;;;;;;5062783;28;20219;-66
2023/10/20 14:42:45;;;;;;;1.50;1.40;;;;;;;;;;5062860;28;20206;-63
2023/10/20 14:45:12;;;;;;;1.15;0.73;;;;;;;;;;5064337;28;20195;-63
2023/10/20 14:47:40;;;;;;;3.53;3.20;;;;;;;;;;5068971;28;20195;-64
2023/10/20 14:50:10;;;;;;;3.28;2.10;;;;;;;;;;5062155;28;20206;-64
2023/10/20 14:52:39;;;;;;;2.63;2.10;;;;;;;;;;5065797;28;20384;-64
2023/10/20 14:55:08;;;;;;;1.90;1.80;;;;;;;;;;5067950;28;20333;-64
2023/10/20 14:57:36;;;;;;;2.72;1.85;;;;;;;;;;5071625;28;20207;-64
2023/10/20 15:00:06;;;;;;;2.95;1.80;;;;;;;;;;5070261;28;20256;-64
2023/10/20 15:02:34;;;;;;;2.05;1.50;;;;;;;;;;5072283;28;20273;-64
2023/10/20 15:05:01;;;;;;;1.70;1.60;;;;;;;;;;5072164;28;20400;-63